Terminal Aerodrome Forecast
Issued by NWS

Home | Current Version | Previous Version | Text Only | Print | Product List | Glossary On
Versions: 1 2 3 4 5 6 7 8 9 10 11 12 13 14 15 16
000
FTUS44 KBMX 010500
TAFTCL
TAF
KTCL 010528Z 0106/0206 00000KT P6SM SCT250
      TEMPO 0108/0112 4SM BR SCT025
     FM011500 20007KT P6SM BKN050
     FM020100 00000KT P6SM SCT250=

USA.gov is the U.S. government's official web portal to all federal, state and local government web resources and services.